createdAt,value
2019-04-11T00:00:44.348Z,6.50
2019-04-11T00:03:13.484Z,6.50
2019-04-11T00:05:45.317Z,6.40
2019-04-11T00:08:14.627Z,6.40
2019-04-11T00:10:44.969Z,6.40
2019-04-11T00:13:21.642Z,6.40
2019-04-11T00:15:46.007Z,6.30
2019-04-11T00:18:16.564Z,6.30
2019-04-11T00:20:46.465Z,6.30
2019-04-11T00:23:16.284Z,6.20
2019-04-11T00:25:47.449Z,6.20
2019-04-11T00:28:17.383Z,6.10
2019-04-11T00:30:48.284Z,6.10
2019-04-11T00:33:18.188Z,6.10
2019-04-11T00:35:48.094Z,6.00
2019-04-11T00:38:18.050Z,6.00
2019-04-11T00:40:47.200Z,6.00
2019-04-11T00:43:28.521Z,5.90
2019-04-11T00:45:47.720Z,5.90
2019-04-11T00:48:17.633Z,5.90
2019-04-11T00:50:48.289Z,5.90
2019-04-11T00:53:18.910Z,5.90
2019-04-11T00:55:48.548Z,5.90
2019-04-11T00:58:33.980Z,5.80
2019-04-11T01:01:03.771Z,5.80
2019-04-11T01:03:33.877Z,5.80
2019-04-11T01:06:03.720Z,5.70
2019-04-11T01:08:33.757Z,5.70
2019-04-11T01:11:04.093Z,5.70
2019-04-11T01:13:41.460Z,5.60
2019-04-11T01:16:11.203Z,5.50
2019-04-11T01:18:40.526Z,5.50
2019-04-11T01:21:10.316Z,5.50
2019-04-11T01:23:39.927Z,5.60
2019-04-11T01:26:09.491Z,5.50
2019-04-11T01:28:40.796Z,5.50
2019-04-11T01:31:11.572Z,5.50
2019-04-11T01:33:40.689Z,5.60
2019-04-11T01:36:12.189Z,5.50
2019-04-11T01:38:46.374Z,5.50
2019-04-11T01:41:18.371Z,5.50
2019-04-11T01:43:56.400Z,5.50
2019-04-11T01:46:19.963Z,5.40
2019-04-11T01:49:01.336Z,5.40
2019-04-11T01:51:32.242Z,5.30
2019-04-11T01:54:01.589Z,5.30
2019-04-11T01:56:31.470Z,5.30
2019-04-11T01:59:00.682Z,5.20
2019-04-11T02:01:50.560Z,5.20
2019-04-11T02:04:27.863Z,5.20
2019-04-11T02:06:58.373Z,5.20
2019-04-11T02:09:28.387Z,5.10
2019-04-11T02:11:58.249Z,5.10
2019-04-11T02:14:29.071Z,5.10
2019-04-11T02:16:59.311Z,5.10
2019-04-11T02:19:32.684Z,5.00
2019-04-11T02:22:19.877Z,5.00
2019-04-11T02:24:57.933Z,4.90
2019-04-11T02:27:28.992Z,4.90
2019-04-11T02:29:58.559Z,4.90
2019-04-11T02:32:29.345Z,4.80
2019-04-11T02:34:59.447Z,4.80
2019-04-11T02:37:31.678Z,4.80
2019-04-11T02:40:03.223Z,4.80
2019-04-11T02:42:35.071Z,4.70
2019-04-11T02:47:43.966Z,4.80
2019-04-11T02:50:14.907Z,4.80
2019-04-11T02:52:44.452Z,4.80
2019-04-11T02:55:14.469Z,4.70
2019-04-11T02:57:48.131Z,4.70
2019-04-11T03:00:17.983Z,4.60
2019-04-11T03:02:50.287Z,4.50
2019-04-11T03:05:20.858Z,4.50
2019-04-11T03:07:51.551Z,4.50
2019-04-11T03:10:24.991Z,4.50
2019-04-11T03:12:56.738Z,4.50
2019-04-11T03:15:42.050Z,4.50
2019-04-11T03:18:02.042Z,4.40
2019-04-11T03:20:39.514Z,4.50
2019-04-11T03:23:07.459Z,4.40
2019-04-11T03:25:34.160Z,4.40
2019-04-11T03:28:05.141Z,4.40
2019-04-11T03:30:54.031Z,4.40
2019-04-11T03:38:38.459Z,4.40
2019-04-11T03:40:57.048Z,4.30
2019-04-11T03:43:27.720Z,4.30
2019-04-11T03:46:03.847Z,4.40
2019-04-11T03:48:31.962Z,4.40
2019-04-11T03:50:50.658Z,4.40
2019-04-11T03:53:23.480Z,4.30
2019-04-11T03:55:53.513Z,4.30
2019-04-11T03:58:23.944Z,4.30
2019-04-11T04:00:58.826Z,4.30
2019-04-11T04:03:26.857Z,4.30
2019-04-11T04:05:59.975Z,4.30
2019-04-11T04:08:31.505Z,4.20
2019-04-11T04:11:12.406Z,4.20
2019-04-11T04:13:47.811Z,4.20
2019-04-11T04:16:41.280Z,4.20
2019-04-11T04:19:18.474Z,4.20
2019-04-11T04:22:03.038Z,4.20
2019-04-11T04:24:37.872Z,4.10
2019-04-11T04:27:07.639Z,4.10
2019-04-11T04:29:38.077Z,4.10
2019-04-11T04:32:09.457Z,4.10
2019-04-11T04:34:40.182Z,4.10
2019-04-11T04:37:11.868Z,4.10
2019-04-11T04:39:43.559Z,4.10
2019-04-11T04:42:23.520Z,4.20
2019-04-11T04:44:45.146Z,4.20
2019-04-11T04:47:23.822Z,4.10
2019-04-11T04:49:48.320Z,4.10
2019-04-11T04:52:18.826Z,4.10
2019-04-11T04:54:48.578Z,4.10
2019-04-11T04:57:20.242Z,4.10
2019-04-11T04:59:49.807Z,4.10
2019-04-11T05:02:20.539Z,4.00
2019-04-11T05:04:52.120Z,4.10
2019-04-11T05:07:23.606Z,4.10
2019-04-11T05:09:54.375Z,4.10
2019-04-11T05:12:24.121Z,4.20
2019-04-11T05:14:54.162Z,4.10
2019-04-11T05:17:26.393Z,4.20
2019-04-11T05:19:56.498Z,4.20
2019-04-11T05:22:26.706Z,4.20
2019-04-11T05:25:01.192Z,4.30
2019-04-11T05:27:29.305Z,4.30
2019-04-11T05:30:00.806Z,4.30
2019-04-11T05:32:31.272Z,4.30
2019-04-11T05:35:00.800Z,4.30
2019-04-11T05:37:31.226Z,4.40
2019-04-11T05:40:00.892Z,4.40
2019-04-11T05:42:31.302Z,4.50
2019-04-11T05:45:00.676Z,4.50
2019-04-11T05:47:30.188Z,4.60
2019-04-11T05:50:10.013Z,4.70
2019-04-11T05:52:36.752Z,4.90
2019-04-11T05:55:09.555Z,4.90
2019-04-11T05:57:43.065Z,5.10
2019-04-11T06:00:19.401Z,5.40
2019-04-11T06:02:57.429Z,5.70
2019-04-11T06:05:33.859Z,6.00
2019-04-11T06:08:07.564Z,6.40
2019-04-11T06:10:56.708Z,6.60
2019-04-11T06:13:34.349Z,6.80
2019-04-11T06:16:04.653Z,7.10
2019-04-11T06:18:48.659Z,7.20
2019-04-11T06:21:24.054Z,7.10
2019-04-11T06:24:12.510Z,7.30
2019-04-11T06:27:14.256Z,7.20
2019-04-11T06:30:03.378Z,7.50
2019-04-11T06:32:54.383Z,7.80
2019-04-11T06:35:38.060Z,8.00
2019-04-11T06:38:27.924Z,8.20
2019-04-11T06:41:02.984Z,8.50
2019-04-11T06:43:58.908Z,8.70
2019-04-11T06:46:53.425Z,9.10
2019-04-11T06:49:28.820Z,9.30
2019-04-11T06:52:00.798Z,9.60
2019-04-11T06:54:52.328Z,9.80
2019-04-11T06:57:23.625Z,9.60
2019-04-11T06:59:52.884Z,9.90
2019-04-11T07:02:24.494Z,9.90
2019-04-11T07:04:56.103Z,10.00
2019-04-11T07:07:28.845Z,10.30
2019-04-11T07:10:06.216Z,10.50
2019-04-11T07:13:03.861Z,10.50
2019-04-11T07:15:46.319Z,10.70
2019-04-11T07:18:46.392Z,10.80
2019-04-11T07:21:16.888Z,10.80
2019-04-11T07:24:05.628Z,10.70
2019-04-11T07:26:41.503Z,10.80
2019-04-11T07:29:50.730Z,10.70
2019-04-11T07:32:22.870Z,11.10
2019-04-11T07:35:11.388Z,10.90
2019-04-11T07:37:44.886Z,11.00
2019-04-11T07:40:37.084Z,10.80
2019-04-11T07:43:35.633Z,10.90
2019-04-11T07:46:25.155Z,10.60
2019-04-11T07:49:08.034Z,10.80
2019-04-11T07:51:50.765Z,11.40
2019-04-11T07:54:22.427Z,11.30
2019-04-11T07:56:55.131Z,10.70
2019-04-11T07:59:51.431Z,10.70
2019-04-11T08:02:43.445Z,11.20
2019-04-11T08:05:38.851Z,11.60
2019-04-11T08:08:43.327Z,11.90
2019-04-11T08:11:25.567Z,12.20
2019-04-11T08:14:22.888Z,11.80
2019-04-11T08:17:07.132Z,11.80
2019-04-11T08:19:55.351Z,12.40
2019-04-11T08:22:35.123Z,12.70
2019-04-11T08:25:23.087Z,12.80
2019-04-11T08:28:03.810Z,12.80
2019-04-11T08:30:50.945Z,12.80
2019-04-11T08:33:22.480Z,12.20
2019-04-11T08:36:12.126Z,12.20
2019-04-11T08:38:48.769Z,12.50
2019-04-11T08:41:38.260Z,12.30
2019-04-11T08:44:12.525Z,12.20
2019-04-11T08:46:47.841Z,12.00
2019-04-11T08:49:24.003Z,12.00
2019-04-11T08:51:53.788Z,11.90
2019-04-11T08:54:37.645Z,12.00
2019-04-11T08:57:07.519Z,12.00
2019-04-11T08:59:56.080Z,12.00
2019-04-11T09:02:51.852Z,12.20
2019-04-11T09:05:37.056Z,12.30
2019-04-11T09:08:35.326Z,12.60
2019-04-11T09:11:20.929Z,12.60
2019-04-11T09:14:18.154Z,12.60
2019-04-11T09:17:03.926Z,12.30
2019-04-11T09:19:55.229Z,12.40
2019-04-11T09:22:33.323Z,12.90
2019-04-11T09:25:34.913Z,12.50
2019-04-11T09:28:15.328Z,12.60
2019-04-11T09:31:06.722Z,12.70
2019-04-11T09:33:57.738Z,12.50
2019-04-11T09:36:42.289Z,12.10
2019-04-11T09:39:19.137Z,12.70
2019-04-11T09:42:11.705Z,12.60
2019-04-11T09:44:59.411Z,12.70
2019-04-11T09:47:48.216Z,12.40
2019-04-11T09:50:30.587Z,11.80
2019-04-11T09:52:59.956Z,11.40
2019-04-11T09:55:43.478Z,11.70
2019-04-11T09:58:25.291Z,11.50
2019-04-11T10:01:12.668Z,11.50
2019-04-11T10:03:43.018Z,12.00
2019-04-11T10:06:32.375Z,12.10
2019-04-11T10:09:01.805Z,12.10
2019-04-11T10:11:59.230Z,12.00
2019-04-11T10:14:31.522Z,12.10
2019-04-11T10:17:33.904Z,12.70
2019-04-11T10:20:06.593Z,12.60
2019-04-11T10:23:10.331Z,12.40
2019-04-11T10:25:47.527Z,12.50
2019-04-11T10:28:30.939Z,12.50
2019-04-11T10:31:04.321Z,12.10
2019-04-11T10:33:41.344Z,12.20
2019-04-11T10:36:25.337Z,12.70
2019-04-11T10:39:19.963Z,13.20
2019-04-11T10:41:53.722Z,13.20
2019-04-11T10:44:32.527Z,13.00
2019-04-11T10:50:15.365Z,12.90
2019-04-11T10:53:02.698Z,13.50
2019-04-11T10:56:10.674Z,13.10
2019-04-11T10:58:49.096Z,13.00
2019-04-11T11:01:40.635Z,12.80
2019-04-11T11:04:13.778Z,12.80
2019-04-11T11:06:44.920Z,12.70
2019-04-11T11:09:30.211Z,12.80
2019-04-11T11:12:30.849Z,12.70
2019-04-11T11:15:31.823Z,12.40
2019-04-11T11:18:59.701Z,12.30
2019-04-11T11:21:09.359Z,12.60
2019-04-11T11:23:58.485Z,12.70
2019-04-11T11:26:32.038Z,12.80
2019-04-11T11:29:40.149Z,12.70
2019-04-11T11:32:16.984Z,12.60
2019-04-11T11:34:53.320Z,12.60
2019-04-11T11:37:50.776Z,12.70
2019-04-11T11:40:42.411Z,12.80
2019-04-11T11:43:22.940Z,12.80
2019-04-11T11:46:29.780Z,12.80
2019-04-11T11:49:12.201Z,12.80
2019-04-11T11:52:11.321Z,12.90
2019-04-11T11:54:46.022Z,13.10
2019-04-11T11:57:26.663Z,13.10
2019-04-11T12:00:14.895Z,13.20
2019-04-11T12:02:55.522Z,13.50
2019-04-11T12:05:29.480Z,13.30
2019-04-11T12:08:24.549Z,12.80
2019-04-11T12:10:59.675Z,12.80
2019-04-11T12:13:48.350Z,13.20
2019-04-11T12:16:21.930Z,13.10
2019-04-11T12:19:41.224Z,13.00
2019-04-11T12:22:02.160Z,13.10
2019-04-11T12:25:07.180Z,12.60
2019-04-11T12:27:54.201Z,12.80
2019-04-11T12:30:43.975Z,12.70
2019-04-11T12:33:21.752Z,12.90
2019-04-11T12:35:59.142Z,12.90
2019-04-11T12:38:50.498Z,13.00
2019-04-11T12:41:26.157Z,12.90
2019-04-11T12:44:11.339Z,12.40
2019-04-11T12:46:59.036Z,12.50
2019-04-11T12:49:40.884Z,12.80
2019-04-11T12:52:32.656Z,13.10
2019-04-11T12:55:02.149Z,13.00
2019-04-11T12:57:49.448Z,13.20
2019-04-11T13:00:28.599Z,13.00
2019-04-11T13:03:28.924Z,13.10
2019-04-11T13:06:02.223Z,12.80
2019-04-11T13:08:59.840Z,12.60
2019-04-11T13:11:28.980Z,12.80
2019-04-11T13:14:24.974Z,13.10
2019-04-11T13:16:56.460Z,13.10
2019-04-11T13:19:43.780Z,13.20
2019-04-11T13:22:18.082Z,13.20
2019-04-11T13:25:06.771Z,12.90
2019-04-11T13:27:39.837Z,12.70
2019-04-11T13:30:28.968Z,12.70
2019-04-11T13:33:03.255Z,12.80
2019-04-11T13:35:51.868Z,12.90
2019-04-11T13:38:29.479Z,12.70
2019-04-11T13:41:16.039Z,12.80
2019-04-11T13:44:13.447Z,12.80
2019-04-11T13:47:05.464Z,12.50
2019-04-11T13:49:58.828Z,12.60
2019-04-11T13:52:51.784Z,12.70
2019-04-11T13:55:26.324Z,12.60
2019-04-11T13:58:14.496Z,12.60
2019-04-11T14:00:51.056Z,12.70
2019-04-11T14:03:42.532Z,12.70
2019-04-11T14:06:28.523Z,12.70
2019-04-11T14:09:24.952Z,12.80
2019-04-11T14:11:58.636Z,12.70
2019-04-11T14:14:35.705Z,12.80
2019-04-11T14:17:22.809Z,12.80
2019-04-11T14:23:15.215Z,12.40
2019-04-11T14:26:14.296Z,12.50
2019-04-11T14:28:54.880Z,12.30
2019-04-11T14:31:43.118Z,12.20
2019-04-11T14:34:37.920Z,12.20
2019-04-11T14:37:25.731Z,12.30
2019-04-11T14:40:02.892Z,12.20
2019-04-11T14:42:54.881Z,12.20
2019-04-11T14:45:53.924Z,12.10
2019-04-11T14:48:34.368Z,12.10
2019-04-11T14:51:20.788Z,12.20
2019-04-11T14:54:06.340Z,12.20
2019-04-11T14:56:36.157Z,12.20
2019-04-11T14:59:24.741Z,12.10
2019-04-11T15:02:01.159Z,12.00
2019-04-11T15:04:55.286Z,12.00
2019-04-11T15:07:24.764Z,11.90
2019-04-11T15:10:01.982Z,11.90
2019-04-11T15:12:33.302Z,12.00
2019-04-11T15:15:24.496Z,11.90
2019-04-11T15:18:02.052Z,11.90
2019-04-11T15:20:55.190Z,11.90
2019-04-11T15:23:24.446Z,11.80
2019-04-11T15:26:12.948Z,11.70
2019-04-11T15:28:51.706Z,11.60
2019-04-11T15:31:41.516Z,11.60
2019-04-11T15:34:29.639Z,11.60
2019-04-11T15:37:30.884Z,11.70
2019-04-11T15:40:08.545Z,11.50
2019-04-11T15:42:56.856Z,11.60
2019-04-11T15:45:35.812Z,11.50
2019-04-11T15:48:33.093Z,11.40
2019-04-11T15:51:22.735Z,11.30
2019-04-11T15:54:17.813Z,11.30
2019-04-11T15:56:52.139Z,11.10
2019-04-11T15:59:59.644Z,11.20
2019-04-11T16:02:41.456Z,11.20
2019-04-11T16:05:48.037Z,11.10
2019-04-11T16:08:49.374Z,11.20
2019-04-11T16:11:52.818Z,11.20
2019-04-11T16:14:44.388Z,11.30
2019-04-11T16:17:35.794Z,11.30
2019-04-11T16:20:17.752Z,11.30
2019-04-11T16:23:11.192Z,11.10
2019-04-11T16:25:46.805Z,11.10
2019-04-11T16:28:35.767Z,11.10
2019-04-11T16:31:04.739Z,11.00
2019-04-11T16:33:46.094Z,10.90
2019-04-11T16:36:49.440Z,10.90
2019-04-11T16:39:37.710Z,10.80
2019-04-11T16:42:09.614Z,10.80
2019-04-11T16:44:56.193Z,10.80
2019-04-11T16:47:47.365Z,10.70
2019-04-11T16:50:17.080Z,10.70
2019-04-11T16:52:46.518Z,10.80
2019-04-11T16:55:15.748Z,10.60
2019-04-11T16:57:45.633Z,10.60
2019-04-11T17:00:15.385Z,10.50
2019-04-11T17:02:44.812Z,10.50
2019-04-11T17:05:16.888Z,10.60
2019-04-11T17:08:12.204Z,10.50
2019-04-11T17:11:03.832Z,10.40
2019-04-11T17:13:33.097Z,10.40
2019-04-11T17:16:02.802Z,10.30
2019-04-11T17:18:34.362Z,10.20
2019-04-11T17:21:07.784Z,10.20
2019-04-11T17:23:35.577Z,10.20
2019-04-11T17:26:06.352Z,10.10
2019-04-11T17:28:38.196Z,10.10
2019-04-11T17:31:07.907Z,10.10
2019-04-11T17:33:37.452Z,10.00
2019-04-11T17:36:07.637Z,9.90
2019-04-11T17:38:37.701Z,9.90
2019-04-11T17:41:11.042Z,9.90
2019-04-11T17:43:38.683Z,9.90
2019-04-11T17:46:07.968Z,9.80
2019-04-11T17:48:37.089Z,9.80
2019-04-11T17:51:06.208Z,9.80
2019-04-11T17:53:37.540Z,9.80
2019-04-11T17:56:26.087Z,9.70
2019-04-11T17:58:57.905Z,9.70
2019-04-11T18:01:26.538Z,9.60
2019-04-11T18:03:56.954Z,9.60
2019-04-11T18:06:26.481Z,9.50
2019-04-11T18:08:55.700Z,9.40
2019-04-11T18:11:26.139Z,9.40
2019-04-11T18:13:55.898Z,9.40
2019-04-11T18:16:25.012Z,9.30
2019-04-11T18:18:54.452Z,9.20
2019-04-11T18:21:26.997Z,9.20
2019-04-11T18:23:56.376Z,9.10
2019-04-11T18:26:25.693Z,9.10
2019-04-11T18:28:55.296Z,9.00
2019-04-11T18:31:25.108Z,8.90
2019-04-11T18:33:56.852Z,8.90
2019-04-11T18:36:31.798Z,8.90
2019-04-11T18:39:05.576Z,8.80
2019-04-11T18:41:31.414Z,8.80
2019-04-11T18:44:00.992Z,8.70
2019-04-11T18:46:30.848Z,8.60
2019-04-11T18:49:00.416Z,8.60
2019-04-11T18:51:30.483Z,8.60
2019-04-11T18:53:59.767Z,8.50
2019-04-11T18:56:29.464Z,8.50
2019-04-11T18:58:58.681Z,8.40
2019-04-11T19:01:30.173Z,8.40
2019-04-11T19:03:59.720Z,8.40
2019-04-11T19:06:28.816Z,8.30
2019-04-11T19:09:00.050Z,8.30
2019-04-11T19:11:29.899Z,8.20
2019-04-11T19:14:00.396Z,8.10
2019-04-11T19:16:29.909Z,8.10
2019-04-11T19:19:04.249Z,8.00
2019-04-11T19:21:34.328Z,8.00
2019-04-11T19:24:03.513Z,7.90
2019-04-11T19:26:32.982Z,7.90
2019-04-11T19:29:03.277Z,7.90
2019-04-11T19:31:36.216Z,7.90
2019-04-11T19:34:08.593Z,7.90
2019-04-11T19:36:36.269Z,7.80
2019-04-11T19:39:07.710Z,7.80
2019-04-11T19:41:37.090Z,7.80
2019-04-11T19:44:06.547Z,7.70
2019-04-11T19:46:36.171Z,7.60
2019-04-11T19:49:05.341Z,7.60
2019-04-11T19:51:34.665Z,7.60
2019-04-11T19:54:03.930Z,7.50
2019-04-11T19:56:56.069Z,7.60
2019-04-11T19:59:25.404Z,7.50
2019-04-11T20:01:54.594Z,7.50
2019-04-11T20:04:24.485Z,7.50
2019-04-11T20:06:54.325Z,7.50
2019-04-11T20:09:24.654Z,7.50
2019-04-11T20:11:54.200Z,7.40
2019-04-11T20:14:23.517Z,7.40
2019-04-11T20:16:52.740Z,7.30
2019-04-11T20:19:28.114Z,7.30
2019-04-11T20:21:57.833Z,7.30
2019-04-11T20:24:27.053Z,7.30
2019-04-11T20:26:58.848Z,7.20
2019-04-11T20:29:29.085Z,7.20
2019-04-11T20:31:59.093Z,7.20
2019-04-11T20:34:28.674Z,7.10
2019-04-11T20:36:57.773Z,7.10
2019-04-11T20:39:27.229Z,7.10
2019-04-11T20:41:56.396Z,7.00
2019-04-11T20:44:27.471Z,7.00
2019-04-11T20:47:00.102Z,7.00
2019-04-11T20:49:27.785Z,7.00
2019-04-11T20:51:57.206Z,7.00
2019-04-11T20:54:26.448Z,6.90
2019-04-11T20:56:55.898Z,6.90
2019-04-11T20:59:34.335Z,6.90
2019-04-11T21:01:57.917Z,6.90
2019-04-11T21:04:28.361Z,6.80
2019-04-11T21:07:01.745Z,6.80
2019-04-11T21:09:33.040Z,6.90
2019-04-11T21:12:00.845Z,6.80
2019-04-11T21:14:31.558Z,6.80
2019-04-11T21:17:01.280Z,6.80
2019-04-11T21:19:30.777Z,6.70
2019-04-11T21:22:00.223Z,6.70
2019-04-11T21:24:30.927Z,6.70
2019-04-11T21:27:00.319Z,6.60
2019-04-11T21:29:30.195Z,6.60
2019-04-11T21:32:01.059Z,6.60
2019-04-11T21:34:32.406Z,6.60
2019-04-11T21:37:02.770Z,6.60
2019-04-11T21:39:31.984Z,6.60
2019-04-11T21:42:01.151Z,6.60
2019-04-11T21:44:30.631Z,6.60
2019-04-11T21:46:59.849Z,6.50
2019-04-11T21:49:30.764Z,6.50
2019-04-11T21:52:02.939Z,6.50
2019-04-11T21:54:31.077Z,6.50
2019-04-11T21:57:00.411Z,6.50
2019-04-11T21:59:29.813Z,6.40
2019-04-11T22:04:35.071Z,6.40
2019-04-11T22:07:04.269Z,6.40
2019-04-11T22:09:35.563Z,6.40
2019-04-11T22:12:07.721Z,6.40
2019-04-11T22:14:35.540Z,6.30
2019-04-11T22:17:24.185Z,6.30
2019-04-11T22:19:53.826Z,6.30
2019-04-11T22:22:23.171Z,6.30
2019-04-11T22:24:54.538Z,6.20
2019-04-11T22:27:23.700Z,6.20
2019-04-11T22:29:54.940Z,6.20
2019-04-11T22:32:25.860Z,6.20
2019-04-11T22:34:56.764Z,6.20
2019-04-11T22:37:27.804Z,6.30
2019-04-11T22:40:01.805Z,6.30
2019-04-11T22:42:29.489Z,6.40
2019-04-11T22:44:58.660Z,6.30
2019-04-11T22:47:27.812Z,6.30
2019-04-11T22:49:57.052Z,6.30
2019-04-11T22:52:28.036Z,6.30
2019-04-11T22:54:57.800Z,6.30
2019-04-11T22:57:28.512Z,6.30
2019-04-11T22:59:57.961Z,6.40
2019-04-11T23:02:55.287Z,6.30
2019-04-11T23:05:25.650Z,6.30
2019-04-11T23:07:55.075Z,6.30
2019-04-11T23:10:24.312Z,6.40
2019-04-11T23:12:53.781Z,6.40
2019-04-11T23:15:23.015Z,6.40
2019-04-11T23:17:52.472Z,6.40
2019-04-11T23:20:21.845Z,6.40
2019-04-11T23:22:50.992Z,6.40
2019-04-11T23:25:20.922Z,6.40
2019-04-11T23:27:50.583Z,6.40
2019-04-11T23:30:20.740Z,6.40
2019-04-11T23:32:51.682Z,6.40
2019-04-11T23:35:21.300Z,6.40
2019-04-11T23:37:51.949Z,6.50
2019-04-11T23:40:22.335Z,6.50
2019-04-11T23:42:52.591Z,6.40
2019-04-11T23:45:24.647Z,6.40
2019-04-11T23:47:54.398Z,6.50
2019-04-11T23:50:25.251Z,6.50
2019-04-11T23:52:57.240Z,6.50
2019-04-11T23:55:29.971Z,6.50
2019-04-11T23:58:01.116Z,6.40
